HORACE LAKE: From 10/10/2019 11:00 to 12/09/2019 15:00

Date LAKE ELEVATION [FT] PRECIPITATION INCREMENT [IN] AIR TEMPERATURE [F] RELATIVE HUMIDITY [%] RELEASE [CFS]
12/09/2019 09:00 651.46 0.00 35.4 100.0 --
12/09/2019 08:00 651.45 0.00 36.3 98.0 --
12/09/2019 07:00 651.46 0.02 38.1 89.0 --
12/09/2019 06:00 651.46 0.05 39.7 85.0 --
12/09/2019 05:00 651.46 0.10 40.3 82.0 --
12/09/2019 04:00 651.45 0.06 39.1 80.0 --
12/09/2019 03:00 651.47 0.04 37.4 84.0 --
12/09/2019 02:00 651.45 0.04 37.6 83.0 --
12/09/2019 01:00 651.46 0.00 36.7 79.0 --
12/09/2019 00:00 651.45 0.00 35.8 78.0 --
12/08/2019 23:00 651.49 0.01 33.9 76.0 --
12/08/2019 22:00 651.45 0.00 31.7 72.0 --
12/08/2019 21:00 651.47 0.00 29.9 66.0 --
12/08/2019 20:00 651.46 0.00 28.5 55.0 --
12/08/2019 19:00 651.46 0.00 28.4 47.0 --
12/08/2019 18:00 651.47 0.00 29.0 37.0 --
12/08/2019 17:00 651.47 0.00 29.1 36.0 --
12/08/2019 16:00 651.47 0.00 30.3 31.0 --
12/08/2019 15:00 651.48 0.00 30.5 30.0 --
12/08/2019 14:00 651.48 0.00 30.6 27.0 --
12/08/2019 13:00 651.49 0.00 30.4 29.0 --
12/08/2019 12:00 651.49 0.00 29.2 36.0 --
12/08/2019 11:00 651.48 0.00 19.7 76.0 --
12/08/2019 10:00 651.49 0.00 10.1 84.0 --
12/08/2019 09:00 651.48 0.00 3.2 82.0 --
12/08/2019 08:00 651.50 0.00 -0.8 83.0 --
12/08/2019 07:00 651.50 0.00 -0.3 84.0 --
12/08/2019 06:00 651.51 0.00 0.6 84.0 --
12/08/2019 05:00 651.52 0.00 0.7 85.0 --
12/08/2019 04:00 651.52 0.00 1.0 85.0 --
12/08/2019 03:00 651.52 0.00 2.4 85.0 --
12/08/2019 02:00 651.52 0.00 3.0 87.0 --
12/08/2019 01:00 651.53 0.00 2.3 86.0 --
12/08/2019 00:00 651.52 0.00 4.7 88.0 --
12/07/2019 23:00 651.52 0.00 5.3 89.0 --
12/07/2019 22:00 651.53 0.00 8.3 91.0 --
12/07/2019 21:00 651.52 0.00 8.4 92.0 --
12/07/2019 20:00 651.54 0.00 10.0 91.0 --
12/07/2019 19:00 651.54 0.00 12.9 88.0 --
12/07/2019 18:00 651.54 0.00 16.8 82.0 --
12/07/2019 17:00 651.54 0.00 22.8 64.0 --
12/07/2019 16:00 651.53 0.00 26.0 54.0 --
12/07/2019 15:00 651.54 0.00 26.3 51.0 --
12/07/2019 14:00 651.55 0.00 26.1 55.0 --
12/07/2019 13:00 651.55 0.00 25.9 56.0 --
12/07/2019 12:00 651.56 0.00 26.3 57.0 --
12/07/2019 11:00 651.55 0.00 24.6 63.0 --
12/07/2019 10:00 651.55 0.00 21.6 73.0 --
12/07/2019 09:00 651.56 0.00 13.7 92.0 --
12/07/2019 08:00 651.56 0.00 10.4 93.0 --
12/07/2019 07:00 651.56 0.00 11.2 93.0 --
12/07/2019 06:00 651.57 0.00 10.7 95.0 --
12/07/2019 05:00 651.57 0.00 15.4 94.0 --
12/07/2019 04:00 651.56 0.00 17.9 88.0 --
12/07/2019 03:00 651.57 0.00 20.6 78.0 --
12/07/2019 02:00 651.57 0.00 22.5 78.0 --
12/07/2019 01:00 651.57 0.00 24.8 85.0 --
12/07/2019 00:00 651.56 0.00 23.7 100.0 --
12/06/2019 23:00 651.57 0.00 20.6 100.0 --
12/06/2019 22:00 651.58 0.00 23.7 100.0 --
12/06/2019 21:00 651.58 0.00 26.9 99.0 --
12/06/2019 20:00 651.58 0.00 26.5 100.0 --
12/06/2019 19:00 651.59 0.00 26.8 100.0 --
12/06/2019 18:00 651.58 0.00 26.9 100.0 --
12/06/2019 17:00 651.59 0.00 27.1 100.0 --
12/06/2019 16:00 651.58 0.00 27.5 100.0 --
12/06/2019 15:00 651.59 0.00 27.9 97.0 --
12/06/2019 14:00 651.59 0.00 27.2 94.0 --
12/06/2019 13:00 651.58 0.00 27.4 84.0 --
12/06/2019 12:00 651.58 0.00 27.8 75.0 --
12/06/2019 11:00 651.59 0.00 27.6 64.0 --
12/06/2019 10:00 651.60 0.00 24.6 76.0 --
12/06/2019 09:00 651.61 0.00 21.6 82.0 --
12/06/2019 08:00 651.61 0.00 17.8 85.0 --
12/06/2019 07:00 651.61 0.00 17.4 84.0 --
12/06/2019 06:00 651.60 0.00 19.3 78.0 --
12/06/2019 05:00 651.61 0.00 20.7 76.0 --
12/06/2019 04:00 651.60 0.00 23.5 67.0 --
12/06/2019 03:00 651.61 0.00 25.5 61.0 --
12/06/2019 02:00 651.62 0.00 25.8 60.0 --
12/06/2019 01:00 651.61 0.00 25.2 60.0 --
12/06/2019 00:00 651.61 0.00 25.3 60.0 --
12/05/2019 23:00 651.61 0.00 26.1 57.0 --
12/05/2019 22:00 651.64 0.00 27.4 54.0 --
12/05/2019 21:00 651.62 0.00 28.3 55.0 --
12/05/2019 20:00 651.64 0.00 30.0 51.0 --
12/05/2019 19:00 651.64 0.00 31.5 56.0 --
12/05/2019 18:00 651.63 0.00 32.2 55.0 --
12/05/2019 17:00 651.64 0.00 33.4 52.0 --
12/05/2019 16:00 651.63 0.00 34.3 62.0 --
12/05/2019 15:00 651.67 0.00 35.7 66.0 --
12/05/2019 14:00 651.65 0.01 37.8 59.0 --
12/05/2019 13:00 651.65 0.01 37.8 59.0 --
12/05/2019 12:00 651.65 0.01 37.7 61.0 --
12/05/2019 11:00 651.65 0.00 37.1 67.0 --
12/05/2019 10:00 651.65 0.00 35.0 78.0 --
12/05/2019 09:00 651.65 0.00 32.7 84.0 --
12/05/2019 08:00 651.65 0.00 27.3 94.0 --
12/05/2019 07:00 651.66 0.00 24.2 100.0 --
12/05/2019 06:00 651.66 0.00 25.5 99.0 --
12/05/2019 05:00 651.66 0.00 25.5 100.0 --
12/05/2019 04:00 651.67 0.00 27.6 97.0 --
12/05/2019 03:00 651.67 0.00 27.1 97.0 --
12/05/2019 02:00 651.67 0.00 27.9 95.0 --
12/05/2019 01:00 651.67 0.00 29.9 88.0 --
12/05/2019 00:00 651.67 0.00 28.4 94.0 --
12/04/2019 23:00 651.67 0.00 28.3 94.0 --
12/04/2019 22:00 651.67 0.00 28.9 92.0 --
12/04/2019 21:00 651.69 0.00 31.1 84.0 --
12/04/2019 20:00 651.69 0.00 32.8 82.0 --
12/04/2019 19:00 651.70 0.00 32.8 83.0 --
12/04/2019 18:00 651.69 0.00 31.1 89.0 --
12/04/2019 17:00 651.68 0.01 32.2 86.0 --
12/04/2019 16:00 651.69 0.01 34.3 77.0 --
12/04/2019 15:00 651.69 0.01 37.3 63.0 --
12/04/2019 14:00 651.69 0.01 36.6 65.0 --
12/04/2019 13:00 651.69 0.01 36.6 64.0 --
12/04/2019 12:00 651.70 0.00 34.5 67.0 --
12/04/2019 11:00 651.71 0.00 32.3 68.0 --
12/04/2019 10:00 651.71 0.00 31.0 64.0 --
12/04/2019 09:00 651.71 0.00 29.6 66.0 --
12/04/2019 08:00 651.71 0.00 27.1 76.0 --
12/04/2019 07:00 651.72 0.00 25.8 77.0 --
12/04/2019 06:00 651.73 0.00 26.4 65.0 --
12/04/2019 05:00 651.72 0.00 28.2 57.0 --
12/04/2019 04:00 651.73 0.00 27.4 61.0 --
12/04/2019 03:00 651.73 0.00 26.3 66.0 --
12/04/2019 02:00 651.73 0.00 26.8 62.0 --
12/04/2019 01:00 651.73 0.00 27.2 60.0 --
12/04/2019 00:00 651.75 0.00 28.7 55.0 --
12/03/2019 23:00 651.71 0.00 29.0 54.0 --
12/03/2019 22:00 651.73 0.00 29.0 55.0 --
12/03/2019 21:00 651.76 0.00 28.9 55.0 --
12/03/2019 20:00 651.73 0.00 29.3 54.0 --
12/03/2019 19:00 651.75 0.00 29.3 54.0 --
12/03/2019 18:00 651.74 0.00 30.0 55.0 --
12/03/2019 17:00 651.75 0.00 31.0 55.0 --
12/03/2019 16:00 651.76 0.00 30.9 53.0 --
12/03/2019 15:00 651.75 0.00 31.0 54.0 --
12/03/2019 14:00 651.77 0.00 30.1 60.0 --
12/03/2019 13:00 651.77 0.00 27.8 77.0 --
12/03/2019 12:00 651.75 0.00 27.1 85.0 --
12/03/2019 11:00 651.78 0.00 26.0 95.0 --
12/03/2019 10:00 651.75 0.00 25.9 93.0 --
12/03/2019 09:00 651.75 0.00 26.3 86.0 --
12/03/2019 08:00 651.76 0.00 25.9 89.0 --
12/03/2019 07:00 651.76 0.00 25.9 96.0 --
12/03/2019 06:00 651.77 0.00 25.6 99.0 --
12/03/2019 05:00 651.77 0.00 25.8 96.0 --
12/03/2019 04:00 651.77 0.00 26.5 99.0 --
12/03/2019 03:00 651.76 0.00 26.9 96.0 --
12/03/2019 02:00 651.77 0.00 27.1 90.0 --
12/03/2019 01:00 651.77 0.00 27.2 84.0 --
12/03/2019 00:00 651.76 0.00 27.2 81.0 --
12/02/2019 23:00 651.77 0.00 27.6 75.0 --
12/02/2019 22:00 651.76 0.00 27.5 77.0 --
12/02/2019 21:00 651.77 0.00 27.8 73.0 --
12/02/2019 20:00 651.77 0.00 26.9 75.0 --
12/02/2019 19:00 651.78 0.00 27.0 81.0 --
12/02/2019 18:00 651.79 0.00 27.0 86.0 --
12/02/2019 17:00 651.79 0.00 27.4 89.0 --
12/02/2019 16:00 651.79 0.00 28.2 88.0 --
12/02/2019 15:00 651.79 0.00 28.8 86.0 --
12/02/2019 14:00 651.80 0.00 30.4 86.0 --
12/02/2019 13:00 651.78 0.00 29.8 100.0 --
12/02/2019 12:00 651.80 0.00 29.3 100.0 --
12/02/2019 11:00 651.79 0.00 29.1 100.0 --
12/02/2019 10:00 651.80 0.00 28.3 100.0 --
12/02/2019 09:00 651.80 0.00 27.4 100.0 --
12/02/2019 08:00 651.80 0.00 26.5 100.0 --
12/02/2019 07:00 651.81 0.00 25.5 100.0 --
12/02/2019 06:00 651.81 0.00 25.3 100.0 --
12/02/2019 05:00 651.80 0.00 25.0 100.0 --
12/02/2019 04:00 651.81 0.00 24.8 100.0 --
12/02/2019 03:00 651.81 0.00 24.6 100.0 --
12/02/2019 02:00 651.81 0.00 24.5 100.0 --
12/02/2019 01:00 651.81 0.00 24.4 100.0 --
12/02/2019 00:00 651.82 0.00 24.8 100.0 --
12/01/2019 23:00 651.82 0.00 25.1 100.0 --
12/01/2019 22:00 651.82 0.00 25.1 100.0 --
12/01/2019 21:00 651.82 0.00 25.5 95.6 --
12/01/2019 20:00 651.82 0.00 25.9 91.2 --
12/01/2019 19:00 651.81 0.00 26.3 86.8 --
12/01/2019 18:00 651.81 0.00 26.7 82.4 --
12/01/2019 17:00 651.81 0.00 27.1 78.0 --
12/01/2019 16:00 651.81 0.00 27.3 78.0 --
12/01/2019 15:00 651.81 0.00 27.4 68.0 --
12/01/2019 14:00 651.81 6.79 27.0 55.0 --
12/01/2019 13:00 651.81 0.00 26.8 54.0 --
12/01/2019 12:00 651.82 0.00 26.6 54.3 --
12/01/2019 11:00 651.83 0.00 26.3 54.6 --
12/01/2019 10:00 651.83 0.00 26.1 54.9 --
12/01/2019 09:00 651.84 0.00 25.9 55.2 --
12/01/2019 08:00 651.85 0.00 25.6 55.6 --
12/01/2019 07:00 651.86 0.00 25.4 55.9 --
12/01/2019 06:00 651.86 0.00 25.2 56.2 --
12/01/2019 05:00 651.87 0.00 24.9 56.5 --
12/01/2019 04:00 651.88 0.00 24.7 56.8 --
12/01/2019 03:00 651.89 0.00 24.5 57.1 --
12/01/2019 02:00 651.89 0.00 24.2 57.4 --
12/01/2019 01:00 651.90 0.00 24.0 57.7 --
12/01/2019 00:00 651.91 0.00 23.8 58.0 --
11/30/2019 23:00 651.92 0.00 23.5 58.3 --
11/30/2019 22:00 651.92 0.00 23.3 58.7 --
11/30/2019 21:00 651.93 0.00 23.0 59.0 --
11/30/2019 20:00 651.94 0.00 22.8 59.3 --
11/30/2019 19:00 651.95 0.00 22.6 59.6 --
11/30/2019 18:00 651.95 0.00 22.3 59.9 --
11/30/2019 17:00 651.96 0.00 22.1 60.2 --
11/30/2019 16:00 651.97 0.00 21.9 60.5 --
11/30/2019 15:00 651.98 0.00 21.6 60.8 --
11/30/2019 14:00 651.98 0.00 21.4 61.1 --
11/30/2019 13:00 651.99 0.00 21.2 61.4 --
11/30/2019 12:00 652.00 0.00 20.9 61.8 --
11/30/2019 11:00 652.01 0.00 20.7 62.1 --
11/30/2019 10:00 652.01 0.00 20.5 62.4 --
11/30/2019 09:00 652.02 0.00 20.2 62.7 --
11/30/2019 08:00 652.03 0.00 20.0 63.0 --
11/30/2019 07:00 652.03 0.00 20.2 66.0 --
11/30/2019 06:00 652.04 0.00 21.1 65.0 --
11/30/2019 05:00 652.02 0.00 20.9 63.0 --
11/30/2019 04:00 652.04 0.00 21.3 64.0 --
11/30/2019 03:00 652.05 0.00 22.1 67.0 --
11/30/2019 02:00 652.05 0.00 22.9 69.0 --
11/30/2019 01:00 652.07 0.00 23.4 69.0 --
11/30/2019 00:00 652.07 0.00 23.6 68.0 --
11/29/2019 23:00 652.08 0.00 24.0 66.0 --
11/29/2019 22:00 652.08 0.00 24.8 67.0 --
11/29/2019 21:00 652.11 0.00 25.7 69.0 --
11/29/2019 20:00 652.09 0.00 26.0 67.0 --
11/29/2019 19:00 652.12 0.00 27.3 64.0 --
11/29/2019 18:00 652.12 0.00 29.4 62.0 --
11/29/2019 17:00 652.12 0.00 30.7 61.0 --
11/29/2019 16:00 652.12 0.00 32.4 58.0 --
11/29/2019 15:00 652.14 0.00 33.1 56.0 --
11/29/2019 14:00 652.16 0.00 32.6 60.0 --
11/29/2019 13:00 652.15 0.00 31.6 65.0 --
11/29/2019 12:00 652.11 0.00 31.9 65.0 --
11/29/2019 11:00 652.18 0.00 31.6 67.0 --
11/29/2019 10:00 652.20 0.00 31.6 66.0 --
11/29/2019 09:00 652.20 0.00 30.5 69.0 --
11/29/2019 08:00 652.21 0.00 29.4 72.0 --
11/29/2019 07:00 652.20 0.00 29.1 75.0 --
11/29/2019 06:00 652.21 0.00 29.5 75.0 --
11/29/2019 05:00 652.20 0.00 29.6 75.0 --
11/29/2019 04:00 652.22 0.00 29.3 75.0 --
11/29/2019 03:00 652.23 0.00 29.8 73.0 --
11/29/2019 02:00 652.22 0.00 29.6 72.0 --
11/29/2019 01:00 652.22 0.00 29.9 73.0 --
11/29/2019 00:00 652.22 0.00 30.3 72.0 --
11/28/2019 23:00 652.23 0.00 29.9 74.0 --
11/28/2019 22:00 652.24 0.00 30.1 74.0 --
11/28/2019 21:00 652.25 0.00 30.1 75.0 --
11/28/2019 20:00 652.25 0.00 30.4 74.0 --
11/28/2019 19:00 652.25 0.00 30.7 75.0 --
11/28/2019 18:00 652.28 0.00 31.6 77.0 --
11/28/2019 17:00 652.27 0.00 33.5 74.0 --
11/28/2019 16:00 652.30 0.00 35.1 70.0 --
11/28/2019 15:00 652.28 0.00 36.6 67.0 --
11/28/2019 14:00 652.26 0.00 35.7 71.0 --
11/28/2019 13:00 652.29 0.00 36.6 72.0 --
11/28/2019 12:00 652.35 0.00 37.3 75.0 --
11/28/2019 11:00 652.32 0.00 37.6 77.0 --
11/28/2019 10:00 652.29 0.00 38.2 81.0 --
11/28/2019 09:00 652.30 0.00 39.6 84.0 --
11/28/2019 08:00 652.30 0.00 38.1 100.0 --
11/28/2019 07:00 652.29 0.02 38.9 94.0 --
11/28/2019 06:00 652.29 0.02 38.6 94.0 --
11/28/2019 05:00 652.31 0.02 38.6 95.0 --
11/28/2019 04:00 652.32 0.06 39.3 94.0 --
11/28/2019 03:00 652.32 0.02 41.0 88.0 --
11/28/2019 02:00 652.31 0.00 43.5 83.0 --
11/28/2019 01:00 652.31 0.00 40.7 100.0 --
11/28/2019 00:00 652.33 0.00 40.1 100.0 --
11/27/2019 23:00 652.31 0.01 40.9 100.0 --
11/27/2019 22:00 652.33 0.09 41.8 100.0 --
11/27/2019 21:00 652.34 0.03 42.1 100.0 --
11/27/2019 20:00 652.35 0.05 42.1 100.0 --
11/27/2019 19:00 652.36 0.06 43.0 100.0 --
11/27/2019 18:00 652.36 0.00 43.1 100.0 --
11/27/2019 17:00 652.37 0.00 44.1 90.0 --
11/27/2019 16:00 652.38 0.00 44.5 86.0 --
11/27/2019 15:00 652.40 0.00 43.9 86.0 --
11/27/2019 14:00 652.41 0.00 43.7 86.0 --
11/27/2019 13:00 652.42 0.00 43.3 85.0 --
11/27/2019 12:00 652.43 0.00 41.9 90.0 --
11/27/2019 11:00 652.44 0.00 38.1 100.0 --
11/27/2019 10:00 652.46 0.00 35.7 100.0 --
11/27/2019 09:00 652.46 0.00 32.1 100.0 --
11/27/2019 08:00 652.48 0.00 30.3 100.0 --
11/27/2019 07:00 652.49 0.00 29.9 100.0 --
11/27/2019 06:00 652.50 0.00 29.8 100.0 --
11/27/2019 05:00 652.51 0.00 29.9 100.0 --
11/27/2019 04:00 652.52 0.00 30.2 100.0 --
11/27/2019 03:00 652.53 0.00 30.5 100.0 --
11/27/2019 02:00 652.55 0.00 30.7 100.0 --
11/27/2019 01:00 652.57 0.00 32.4 100.0 --
11/27/2019 00:00 652.58 0.00 32.9 100.0 --
11/26/2019 23:00 652.59 0.00 34.5 100.0 --
11/26/2019 22:00 652.61 0.00 36.2 100.0 --
11/26/2019 21:00 652.62 0.00 36.4 100.0 --
11/26/2019 20:00 652.62 0.00 37.2 98.0 --
11/26/2019 19:00 652.64 0.00 41.0 88.0 --
11/26/2019 18:00 652.65 0.00 44.2 80.0 --
11/26/2019 17:00 652.65 0.00 54.6 50.0 --
11/26/2019 16:00 652.67 0.00 55.5 49.0 --
11/26/2019 15:00 652.69 0.00 54.9 49.0 --
11/26/2019 14:00 652.69 0.00 53.2 53.0 --
11/26/2019 13:00 652.70 0.00 49.8 63.0 --
11/26/2019 12:00 652.72 0.00 46.0 74.0 --
11/26/2019 11:00 652.72 0.00 36.7 97.0 --
11/26/2019 10:00 652.73 0.00 32.3 100.0 --
11/26/2019 09:00 652.73 0.00 29.9 100.0 --
11/26/2019 08:00 652.74 0.00 29.3 100.0 --
11/26/2019 07:00 652.73 0.00 29.4 100.0 --
11/26/2019 06:00 652.74 0.00 29.9 100.0 --
11/26/2019 05:00 652.74 0.00 30.2 100.0 --
11/26/2019 04:00 652.75 0.00 30.8 100.0 --
11/26/2019 03:00 652.74 0.00 31.8 100.0 --
11/26/2019 02:00 652.74 0.00 32.8 100.0 --
11/26/2019 01:00 652.73 0.00 33.4 100.0 --
11/26/2019 00:00 652.73 0.00 34.6 100.0 --
11/25/2019 23:00 652.72 0.00 34.6 100.0 --
11/25/2019 22:00 652.72 0.00 35.0 98.0 --
11/25/2019 21:00 652.70 0.00 35.3 96.0 --
11/25/2019 20:00 652.69 0.00 35.1 95.0 --
11/25/2019 19:00 652.67 0.00 35.8 93.0 --
11/25/2019 18:00 652.65 0.00 36.7 88.0 --
11/25/2019 17:00 652.63 0.00 39.7 76.0 --
11/25/2019 16:00 652.60 0.00 45.0 58.0 --
11/25/2019 15:00 652.58 0.00 44.8 59.0 --
11/25/2019 14:00 652.56 0.00 44.2 59.0 --
11/25/2019 13:00 652.54 0.00 44.7 59.0 --
11/25/2019 12:00 652.49 0.00 42.9 66.0 --
11/25/2019 11:00 652.47 0.00 40.7 72.0 --
11/25/2019 10:00 652.44 0.00 36.6 87.0 --
11/25/2019 09:00 652.41 0.00 34.7 95.0 --
11/25/2019 08:00 652.37 0.00 36.2 83.0 --
11/25/2019 07:00 652.32 0.00 37.5 78.0 --
11/25/2019 06:00 652.29 0.00 37.2 76.0 --
11/25/2019 05:00 652.25 0.00 36.2 78.0 --
11/25/2019 04:00 652.18 0.01 35.7 80.0 --
11/25/2019 03:00 652.14 0.00 37.2 82.0 --
11/25/2019 02:00 652.07 0.00 36.2 88.0 --
11/25/2019 01:00 652.01 0.02 37.2 86.0 --
11/25/2019 00:00 651.94 0.03 37.3 89.0 --
11/24/2019 23:00 651.86 0.07 36.3 95.0 --
11/24/2019 22:00 651.79 0.11 35.7 98.0 --
11/24/2019 21:00 651.72 0.19 35.5 100.0 --
11/24/2019 20:00 651.62 0.36 34.5 100.0 --
11/24/2019 19:00 651.53 0.38 34.4 100.0 --
11/24/2019 18:00 651.42 0.41 34.5 100.0 --
11/24/2019 17:00 651.36 0.32 33.4 100.0 --
11/24/2019 16:00 651.32 0.16 32.7 100.0 --
11/24/2019 15:00 651.31 0.17 32.3 100.0 --
11/24/2019 14:00 651.28 0.19 32.5 100.0 --
11/24/2019 13:00 651.27 0.08 32.2 100.0 --
11/24/2019 12:00 651.27 0.05 32.0 100.0 --
11/24/2019 11:00 651.27 0.06 31.7 100.0 --
11/24/2019 10:00 651.27 0.02 31.0 100.0 --
11/24/2019 09:00 651.26 0.01 30.5 100.0 --
11/24/2019 08:00 651.27 0.00 31.2 100.0 --
11/24/2019 07:00 651.26 0.03 31.6 100.0 --
11/24/2019 06:00 651.25 0.03 32.1 100.0 --
11/24/2019 05:00 651.24 0.00 31.6 84.0 --
11/24/2019 04:00 651.24 0.00 29.9 82.0 --
11/24/2019 03:00 651.26 0.00 28.7 87.0 --
11/24/2019 02:00 651.26 0.00 28.0 88.0 --
11/24/2019 01:00 651.26 0.00 27.7 86.0 --
11/24/2019 00:00 651.27 0.00 28.5 84.0 --
11/23/2019 23:00 651.26 0.00 28.6 81.0 --
11/23/2019 22:00 651.26 0.00 29.0 79.0 --
11/23/2019 21:00 651.26 0.00 28.9 79.0 --
11/23/2019 20:00 651.25 0.00 28.5 79.0 --
11/23/2019 19:00 651.26 0.00 30.1 73.0 --
11/23/2019 18:00 651.27 0.00 31.7 64.0 --
11/23/2019 17:00 651.26 0.00 36.9 52.0 --
11/23/2019 16:00 651.29 0.00 40.8 34.0 --
11/23/2019 15:00 651.30 0.00 40.2 31.0 --
11/23/2019 14:00 651.28 0.00 38.4 34.0 --
11/23/2019 13:00 651.25 0.00 36.5 36.0 --
11/23/2019 12:00 651.28 0.00 34.3 40.0 --
11/23/2019 11:00 651.28 0.00 32.1 43.0 --
11/23/2019 10:00 651.28 0.00 30.3 48.0 --
11/23/2019 09:00 651.28 0.00 28.1 58.0 --
11/23/2019 08:00 651.28 0.00 28.2 58.0 --
11/23/2019 07:00 651.28 0.00 28.5 58.0 --
11/23/2019 06:00 651.29 0.00 29.4 57.0 --
11/23/2019 05:00 651.30 0.00 30.0 52.0 --
11/23/2019 04:00 651.28 0.00 30.3 52.0 --
11/23/2019 03:00 651.31 0.00 30.9 54.0 --
11/23/2019 02:00 651.31 0.00 31.6 53.0 --
11/23/2019 01:00 651.27 0.00 31.3 52.0 --
11/23/2019 00:00 651.31 0.00 32.8 58.0 --
11/22/2019 23:00 651.30 0.00 34.4 56.0 --
11/22/2019 22:00 651.27 0.00 36.1 55.0 --
11/22/2019 21:00 651.32 0.02 37.2 55.0 --
11/22/2019 20:00 651.27 0.00 39.5 55.0 --
11/22/2019 19:00 651.29 0.00 40.0 64.0 --
11/22/2019 18:00 651.29 0.00 40.1 68.0 --
11/22/2019 17:00 651.30 0.00 40.8 74.0 --
11/22/2019 16:00 651.30 0.01 42.0 75.0 --
11/22/2019 15:00 651.31 0.01 43.1 87.0 --
11/22/2019 14:00 651.28 0.02 43.9 92.0 --
11/22/2019 13:00 651.28 0.00 44.9 77.0 --
11/22/2019 12:00 651.27 0.00 44.7 73.0 --
11/22/2019 11:00 651.28 0.00 44.0 75.0 --
11/22/2019 10:00 651.29 0.00 43.6 76.0 --
11/22/2019 09:00 651.30 0.00 42.5 79.0 --
11/22/2019 08:00 651.29 0.00 42.4 80.0 --
11/22/2019 07:00 651.29 0.01 41.9 83.0 --
11/22/2019 06:00 651.28 0.00 40.6 91.0 --
11/22/2019 05:00 651.29 0.00 36.4 100.0 --
11/22/2019 04:00 651.30 0.00 33.5 100.0 --
11/22/2019 03:00 651.28 0.00 33.8 100.0 --
11/22/2019 02:00 651.29 0.03 33.0 100.0 --
11/22/2019 01:00 651.28 0.00 32.2 100.0 --
11/22/2019 00:00 651.28 0.00 31.7 100.0 --
11/21/2019 23:00 651.28 0.00 30.9 100.0 --
11/21/2019 22:00 651.29 0.00 30.7 100.0 --
11/21/2019 21:00 651.29 0.00 30.0 100.0 --
11/21/2019 20:00 651.30 0.00 31.2 99.0 --
11/21/2019 19:00 651.28 0.00 32.2 94.0 --
11/21/2019 18:00 651.28 0.00 33.8 87.0 --
11/21/2019 17:00 651.28 0.00 37.4 74.0 --
11/21/2019 16:00 651.29 0.00 42.6 56.0 --
11/21/2019 15:00 651.28 0.00 42.8 58.0 --
11/21/2019 14:00 651.28 0.00 40.6 61.0 --
11/21/2019 13:00 651.29 0.00 39.6 63.0 --
11/21/2019 12:00 651.28 0.00 38.4 66.0 --
11/21/2019 11:00 651.28 0.00 36.7 70.0 --
11/21/2019 10:00 651.27 0.00 35.1 73.0 --
11/21/2019 09:00 651.28 0.00 34.1 77.0 --
11/21/2019 08:00 651.27 0.00 33.0 82.0 --
11/21/2019 07:00 651.27 0.00 33.5 84.0 --
11/21/2019 06:00 651.28 0.00 33.9 83.0 --
11/21/2019 05:00 651.28 0.00 33.7 85.0 --
11/21/2019 04:00 651.26 0.00 33.2 88.0 --
11/21/2019 03:00 651.27 0.00 33.9 87.0 --
11/21/2019 02:00 651.26 0.00 33.8 88.0 --
11/21/2019 01:00 651.26 0.00 33.8 90.0 --
11/21/2019 00:00 651.27 0.00 33.9 91.0 --
11/20/2019 23:00 651.26 0.00 34.1 94.0 --
11/20/2019 22:00 651.26 0.00 34.3 95.0 --
11/20/2019 21:00 651.26 0.00 34.1 99.0 --
11/20/2019 20:00 651.25 0.00 34.0 100.0 --
11/20/2019 19:00 651.24 0.00 34.2 100.0 --
11/20/2019 18:00 651.24 0.00 34.3 100.0 --
11/20/2019 17:00 651.25 0.01 34.6 100.0 --
11/20/2019 16:00 651.25 0.00 34.7 100.0 --
11/20/2019 15:00 651.24 0.02 35.2 100.0 --
11/20/2019 14:00 651.24 0.02 35.0 100.0 --
11/20/2019 13:00 651.23 0.04 34.7 100.0 --
11/20/2019 12:00 651.22 0.04 35.2 100.0 --
11/20/2019 11:00 651.21 0.01 35.7 100.0 --
11/20/2019 10:00 651.21 0.00 35.6 100.0 --
11/20/2019 09:00 651.20 0.00 35.2 100.0 --
11/20/2019 08:00 651.20 0.00 35.2 100.0 --
11/20/2019 07:00 651.20 0.00 35.1 100.0 --
11/20/2019 06:00 651.20 0.00 35.3 100.0 --
11/20/2019 05:00 651.20 0.00 35.5 100.0 --
11/20/2019 04:00 651.19 0.00 35.8 100.0 --
11/20/2019 03:00 651.19 0.00 35.2 100.0 --
11/20/2019 02:00 651.19 0.00 35.5 100.0 --
11/20/2019 01:00 651.20 0.00 35.6 100.0 --
11/20/2019 00:00 651.19 0.00 35.6 100.0 --
11/19/2019 23:00 651.19 0.00 35.9 100.0 --
11/19/2019 22:00 651.18 0.00 35.9 100.0 --
11/19/2019 21:00 651.17 0.00 36.3 100.0 --
11/19/2019 20:00 651.16 0.00 36.4 100.0 --
11/19/2019 19:00 651.17 0.00 36.8 100.0 --
11/19/2019 18:00 651.17 0.00 37.6 100.0 --
11/19/2019 17:00 651.18 0.00 38.4 100.0 --
11/19/2019 16:00 651.18 0.00 39.1 100.0 --
11/19/2019 15:00 651.17 0.00 38.0 100.0 --
11/19/2019 14:00 651.15 0.01 37.2 100.0 --
11/19/2019 13:00 651.15 0.07 34.5 100.0 --
11/19/2019 12:00 651.14 0.01 33.1 100.0 --
11/19/2019 11:00 651.14 0.05 32.9 100.0 --
11/19/2019 10:00 651.16 0.11 35.0 100.0 --
11/19/2019 09:00 651.14 0.09 35.5 100.0 --
11/19/2019 08:00 651.13 0.05 35.9 100.0 --
11/19/2019 07:00 651.13 0.01 35.8 100.0 --
11/19/2019 06:00 651.12 0.01 36.7 100.0 --
11/19/2019 05:00 651.11 0.02 36.7 100.0 --
11/19/2019 04:00 651.11 0.00 36.7 100.0 --
11/19/2019 03:00 651.12 0.00 37.0 100.0 --
11/19/2019 02:00 651.13 0.00 37.5 100.0 --
11/19/2019 01:00 651.11 0.01 36.4 100.0 --
11/19/2019 00:00 651.11 0.01 37.0 100.0 --
11/18/2019 23:00 651.12 0.00 36.8 100.0 --
11/18/2019 22:00 651.11 0.00 36.2 100.0 --
11/18/2019 21:00 651.12 0.01 37.1 100.0 --
11/18/2019 20:00 651.12 0.01 37.0 100.0 --
11/18/2019 19:00 651.11 0.00 37.3 96.0 --
11/18/2019 18:00 651.11 0.00 37.4 88.0 --
11/18/2019 17:00 651.11 0.00 39.4 75.0 --
11/18/2019 16:00 651.12 0.00 40.0 73.0 --
11/18/2019 15:00 651.11 0.00 40.2 72.0 --
11/18/2019 14:00 651.12 0.00 37.3 75.0 --
11/18/2019 13:00 651.13 0.00 36.7 75.0 --
11/18/2019 12:00 651.13 0.00 35.6 73.0 --
11/18/2019 11:00 651.11 0.00 34.0 72.0 --
11/18/2019 10:00 651.13 0.00 32.7 70.0 --
11/18/2019 09:00 651.11 0.00 32.1 70.0 --
11/18/2019 08:00 651.12 0.00 31.2 70.0 --
11/18/2019 07:00 651.13 0.00 30.8 68.0 --
11/18/2019 06:00 651.12 0.00 30.6 67.0 --
11/18/2019 05:00 651.13 0.00 30.5 66.0 --
11/18/2019 04:00 651.12 0.00 30.4 66.0 --
11/18/2019 03:00 651.13 0.00 30.5 65.0 --
11/18/2019 02:00 651.14 0.00 30.5 66.0 --
11/18/2019 01:00 651.13 0.00 30.6 66.0 --
11/18/2019 00:00 651.13 0.00 30.9 68.0 --
11/17/2019 23:00 651.14 0.00 31.0 70.0 --
11/17/2019 22:00 651.13 0.00 31.1 70.0 --
11/17/2019 21:00 651.14 0.00 31.2 71.0 --
11/17/2019 20:00 651.14 0.00 31.2 69.0 --
11/17/2019 19:00 651.14 0.00 31.6 68.0 --
11/17/2019 18:00 651.15 0.00 32.0 67.0 --
11/17/2019 17:00 651.15 0.00 32.8 65.0 --
11/17/2019 16:00 651.15 0.00 33.5 62.0 --
11/17/2019 15:00 651.15 0.00 34.3 51.0 --
11/17/2019 14:00 651.15 0.00 32.1 54.0 --
11/17/2019 13:00 651.15 0.00 30.4 46.0 --
11/17/2019 12:00 651.16 0.00 27.9 44.0 --
11/17/2019 11:00 651.16 0.00 25.0 45.0 --
11/17/2019 10:00 651.16 0.00 20.8 60.0 --
11/17/2019 09:00 651.16 0.00 13.3 85.0 --
11/17/2019 08:00 651.16 0.00 12.1 85.0 --
11/17/2019 07:00 651.17 0.00 10.9 85.0 --
11/17/2019 06:00 651.16 0.00 12.7 79.0 --
11/17/2019 05:00 651.17 0.00 13.2 78.0 --
11/17/2019 04:00 651.17 0.00 13.8 75.0 --
11/17/2019 03:00 651.17 0.00 15.1 73.0 --
11/17/2019 02:00 651.17 0.00 14.9 72.0 --
11/17/2019 01:00 651.16 0.00 17.1 63.0 --
11/17/2019 00:00 651.17 0.00 17.2 60.0 --
11/16/2019 23:00 651.17 0.00 18.7 53.0 --
11/16/2019 22:00 651.18 0.00 18.7 49.0 --
11/16/2019 21:00 651.18 0.00 22.1 38.0 --
11/16/2019 20:00 651.18 0.00 22.9 38.0 --
11/16/2019 19:00 651.19 0.00 23.7 40.0 --
11/16/2019 18:00 651.19 0.00 26.1 34.0 --
11/16/2019 17:00 651.19 0.00 28.4 31.0 --
11/16/2019 16:00 651.18 0.00 28.5 27.0 --
11/16/2019 15:00 651.20 0.00 28.5 24.0 --
11/16/2019 14:00 651.18 0.00 28.2 24.0 --
11/16/2019 13:00 651.19 0.00 27.5 30.0 --
11/16/2019 12:00 651.19 0.00 26.1 36.0 --
11/16/2019 11:00 651.19 0.00 23.1 38.0 --
11/16/2019 10:00 651.19 0.00 20.4 39.0 --
11/16/2019 09:00 651.18 0.00 18.8 41.0 --
11/16/2019 08:00 651.18 0.00 18.8 43.0 --
11/16/2019 07:00 651.20 0.00 20.3 40.0 --
11/16/2019 06:00 651.20 0.00 21.6 39.0 --
11/16/2019 05:00 651.20 0.00 23.3 41.0 --
11/16/2019 04:00 651.20 0.00 24.7 35.0 --
11/16/2019 03:00 651.20 0.00 27.6 36.0 --
11/16/2019 02:00 651.22 0.00 30.2 49.0 --
11/16/2019 01:00 651.20 0.00 31.9 60.0 --
11/16/2019 00:00 651.19 0.00 33.8 65.0 --
11/15/2019 23:00 651.22 0.00 37.9 56.0 --
11/15/2019 22:00 651.24 0.00 38.4 56.0 --
11/15/2019 21:00 651.25 0.00 39.3 55.0 --
11/15/2019 20:00 651.22 0.00 40.3 57.0 --
11/15/2019 19:00 651.18 0.00 41.5 55.0 --
11/15/2019 18:00 651.23 0.03 43.0 52.0 --
11/15/2019 17:00 651.21 0.00 45.5 45.0 --
11/15/2019 16:00 651.22 0.00 46.0 43.0 --
11/15/2019 15:00 651.24 0.00 44.8 43.0 --
11/15/2019 14:00 651.22 0.00 42.7 43.0 --
11/15/2019 13:00 651.22 0.00 41.3 45.0 --
11/15/2019 12:00 651.24 0.00 40.1 46.0 --
11/15/2019 11:00 651.22 0.00 37.3 53.0 --
11/15/2019 10:00 651.24 0.00 31.2 82.0 --
11/15/2019 09:00 651.23 0.00 24.6 99.0 --
11/15/2019 08:00 651.24 0.00 23.4 100.0 --
11/15/2019 07:00 651.23 0.00 24.1 97.0 --
11/15/2019 06:00 651.26 0.00 25.3 93.0 --
11/15/2019 05:00 651.24 0.00 26.5 91.0 --
11/15/2019 04:00 651.24 0.00 28.1 89.0 --
11/15/2019 03:00 651.25 0.00 27.6 90.0 --
11/15/2019 02:00 651.25 0.00 27.6 87.0 --
11/15/2019 01:00 651.25 0.00 26.6 82.0 --
11/15/2019 00:00 651.25 0.00 27.2 79.0 --
11/14/2019 23:00 651.25 0.00 26.1 78.0 --
11/14/2019 22:00 651.25 0.00 26.2 75.0 --
11/14/2019 21:00 651.25 0.00 26.7 71.0 --
11/14/2019 20:00 651.26 0.00 27.1 68.0 --
11/14/2019 19:00 651.25 0.00 26.9 65.0 --
11/14/2019 18:00 651.25 0.00 27.8 61.0 --
11/14/2019 17:00 651.26 0.00 29.1 57.0 --
11/14/2019 16:00 651.25 0.00 28.5 54.0 --
11/14/2019 15:00 651.26 0.00 27.2 51.0 --
11/14/2019 14:00 651.27 0.00 25.7 48.0 --
11/14/2019 13:00 651.27 0.00 25.6 49.0 --
11/14/2019 12:00 651.27 0.00 22.9 53.0 --
11/14/2019 11:00 651.28 0.00 21.5 62.0 --
11/14/2019 10:00 651.27 0.00 19.1 69.0 --
11/14/2019 09:00 651.27 0.00 16.4 84.0 --
11/14/2019 08:00 651.28 0.00 14.5 88.0 --
11/14/2019 07:00 651.26 0.00 14.8 85.0 --
11/14/2019 06:00 651.28 0.00 14.9 86.0 --
11/14/2019 05:00 651.29 0.00 13.9 86.0 --
11/14/2019 04:00 651.28 0.00 14.5 86.0 --
11/14/2019 03:00 651.28 0.00 15.0 82.0 --
11/14/2019 02:00 651.28 0.00 15.1 82.0 --
11/14/2019 01:00 651.28 0.00 14.3 81.0 --
11/14/2019 00:00 651.30 0.00 15.1 77.0 --
11/13/2019 23:00 651.29 0.00 16.0 74.0 --
11/13/2019 22:00 651.30 0.00 16.5 70.0 --
11/13/2019 21:00 651.30 0.00 16.6 66.0 --
11/13/2019 20:00 651.30 0.00 18.7 59.0 --
11/13/2019 19:00 651.30 0.00 20.7 53.0 --
11/13/2019 18:00 651.30 0.00 21.6 49.0 --
11/13/2019 17:00 651.30 0.00 22.8 46.0 --
11/13/2019 16:00 651.31 0.00 23.0 47.0 --
11/13/2019 15:00 651.33 0.00 22.4 48.0 --
11/13/2019 14:00 651.35 0.00 21.1 49.0 --
11/13/2019 13:00 651.29 0.00 20.7 51.0 --
11/13/2019 12:00 651.33 0.00 18.2 54.0 --
11/13/2019 11:00 651.30 0.00 16.5 55.0 --
11/13/2019 10:00 651.32 0.00 14.8 57.0 --
11/13/2019 09:00 651.35 0.00 12.5 61.0 --
11/13/2019 08:00 651.34 0.00 12.7 65.0 --
11/13/2019 07:00 651.34 0.00 12.6 62.0 --
11/13/2019 06:00 651.33 0.00 12.8 62.0 --
11/13/2019 05:00 651.35 0.00 13.5 63.0 --
11/13/2019 04:00 651.36 0.00 14.3 58.0 --
11/13/2019 03:00 651.34 0.00 15.0 59.0 --
11/13/2019 02:00 651.37 0.00 16.7 66.0 --
11/13/2019 01:00 651.33 0.00 17.3 58.0 --
11/13/2019 00:00 651.35 0.00 19.0 64.0 --
11/12/2019 23:00 651.35 0.00 19.2 64.0 --
11/12/2019 22:00 651.34 0.00 20.0 65.0 --
11/12/2019 21:00 651.35 0.00 21.3 66.0 --
11/12/2019 20:00 651.37 0.00 23.1 65.0 --
11/12/2019 19:00 651.38 0.00 25.1 77.0 --
11/12/2019 18:00 651.37 0.00 25.1 80.0 --
11/12/2019 17:00 651.37 0.00 25.5 80.0 --
11/12/2019 16:00 651.37 0.00 26.2 85.0 --
11/12/2019 15:00 651.36 0.01 27.4 81.0 --
11/12/2019 14:00 651.37 0.00 29.5 88.0 --
11/12/2019 13:00 651.37 0.00 31.0 88.0 --
11/12/2019 12:00 651.39 0.03 32.5 100.0 --
11/12/2019 11:00 651.39 0.05 32.8 100.0 --
11/12/2019 10:00 651.38 0.00 32.3 100.0 --
11/12/2019 09:00 651.37 0.00 31.1 100.0 --
11/12/2019 08:00 651.37 0.00 30.8 100.0 --
11/12/2019 07:00 651.37 0.00 30.7 100.0 --
11/12/2019 06:00 651.37 0.00 30.5 100.0 --
11/12/2019 05:00 651.37 0.00 30.8 100.0 --
11/12/2019 04:00 651.39 0.00 31.0 100.0 --
11/12/2019 03:00 651.37 0.00 31.0 100.0 --
11/12/2019 02:00 651.39 0.00 31.0 100.0 --
11/12/2019 01:00 651.38 0.00 32.5 100.0 --
11/12/2019 00:00 651.40 0.00 33.0 100.0 --
11/11/2019 23:00 651.39 0.00 34.2 100.0 --
11/11/2019 22:00 651.40 0.00 35.6 97.0 --
11/11/2019 21:00 651.40 0.00 35.6 99.0 --
11/11/2019 20:00 651.40 0.00 35.2 95.0 --
11/11/2019 19:00 651.41 0.00 35.7 88.0 --
11/11/2019 18:00 651.40 0.00 37.2 80.0 --
11/11/2019 17:00 651.40 0.00 38.3 75.0 --
11/11/2019 16:00 651.41 0.00 39.1 74.0 --
11/11/2019 15:00 651.41 0.00 39.6 73.0 --
11/11/2019 14:00 651.42 0.00 40.1 72.0 --
11/11/2019 13:00 651.42 0.00 40.2 73.0 --
11/11/2019 12:00 651.42 0.00 41.2 75.0 --
11/11/2019 11:00 651.43 0.00 41.3 75.0 --
11/11/2019 10:00 651.43 0.00 40.0 82.0 --
11/11/2019 09:00 651.43 0.00 38.9 83.0 --
11/11/2019 08:00 651.43 0.00 37.1 87.0 --
11/11/2019 07:00 651.43 0.00 36.6 87.0 --
11/11/2019 06:00 651.44 0.00 37.0 84.0 --
11/11/2019 05:00 651.44 0.00 36.8 82.0 --
11/11/2019 04:00 651.43 0.00 36.6 81.0 --
11/11/2019 03:00 651.44 0.00 36.1 82.0 --
11/11/2019 02:00 651.45 0.00 36.5 82.0 --
11/11/2019 01:00 651.45 0.00 36.2 79.0 --
11/11/2019 00:00 651.44 0.00 36.7 79.0 --
11/10/2019 23:00 651.46 0.00 37.6 76.0 --
11/10/2019 22:00 651.46 0.00 38.2 72.0 --
11/10/2019 21:00 651.45 0.00 40.4 66.0 --
11/10/2019 20:00 651.47 0.00 42.8 55.0 --
11/10/2019 19:00 651.47 0.00 43.7 49.0 --
11/10/2019 18:00 651.47 0.00 44.8 48.0 --
11/10/2019 17:00 651.48 0.00 45.9 43.0 --
11/10/2019 16:00 651.48 0.00 46.3 38.0 --
11/10/2019 15:00 651.48 0.00 46.1 39.0 --
11/10/2019 14:00 651.49 0.00 43.0 45.0 --
11/10/2019 13:00 651.48 0.00 39.5 48.0 --
11/10/2019 12:00 651.48 0.00 37.7 49.0 --
11/10/2019 11:00 651.49 0.00 36.2 53.0 --
11/10/2019 10:00 651.49 0.00 34.0 58.0 --
11/10/2019 09:00 651.49 0.00 33.2 62.0 --
11/10/2019 08:00 651.50 0.00 33.1 59.0 --
11/10/2019 07:00 651.51 0.00 33.3 59.0 --
11/10/2019 06:00 651.51 0.00 33.2 54.0 --
11/10/2019 05:00 651.51 0.00 32.3 61.0 --
11/10/2019 04:00 651.52 0.00 33.2 55.0 --
11/10/2019 03:00 651.51 0.00 33.1 56.0 --
11/10/2019 02:00 651.53 0.00 33.2 59.0 --
11/10/2019 01:00 651.53 0.00 32.2 58.0 --
11/10/2019 00:00 651.52 0.00 31.5 55.0 --
11/09/2019 23:00 651.53 0.00 32.0 47.0 --
11/09/2019 22:00 651.53 0.00 31.6 39.0 --
11/09/2019 21:00 651.54 0.00 29.9 53.0 --
11/09/2019 20:00 651.55 0.00 28.6 58.0 --
11/09/2019 19:00 651.55 0.00 29.3 54.0 --
11/09/2019 18:00 651.55 0.00 30.3 51.0 --
11/09/2019 17:00 651.56 0.00 36.6 30.0 --
11/09/2019 16:00 651.55 0.00 37.0 26.0 --
11/09/2019 15:00 651.55 0.00 36.1 25.0 --
11/09/2019 14:00 651.57 0.00 34.9 29.0 --
11/09/2019 13:00 651.58 0.00 33.6 35.0 --
11/09/2019 12:00 651.57 0.00 31.7 43.0 --
11/09/2019 11:00 651.57 0.00 28.2 52.0 --
11/09/2019 10:00 651.58 0.00 26.0 65.0 --
11/09/2019 09:00 651.59 0.00 23.0 81.0 --
11/09/2019 08:00 651.59 0.00 18.5 88.0 --
11/09/2019 07:00 651.59 0.00 18.6 87.0 --
11/09/2019 06:00 651.60 0.00 19.0 83.0 --
11/09/2019 05:00 651.60 0.00 20.0 79.0 --
11/09/2019 04:00 651.61 0.00 22.9 72.0 --
11/09/2019 03:00 651.60 0.00 23.9 71.0 --
11/09/2019 02:00 651.61 0.00 23.6 74.0 --
11/09/2019 01:00 651.62 0.00 24.1 71.0 --
11/09/2019 00:00 651.62 0.00 25.3 65.0 --
11/08/2019 23:00 651.61 0.00 25.4 66.0 --
11/08/2019 22:00 651.64 0.00 25.8 61.0 --
11/08/2019 21:00 651.63 0.00 26.3 59.0 --
11/08/2019 20:00 651.65 0.00 26.5 58.0 --
11/08/2019 19:00 651.63 0.00 27.0 61.0 --
11/08/2019 18:00 651.65 0.00 27.4 55.0 --
11/08/2019 17:00 651.65 0.00 27.8 56.0 --
11/08/2019 16:00 651.62 0.00 28.0 56.0 --
11/08/2019 15:00 651.66 0.00 28.2 61.0 --
11/08/2019 14:00 651.64 0.00 28.4 61.0 --
11/08/2019 13:00 651.66 0.00 27.9 62.0 --
11/08/2019 12:00 651.68 0.00 28.5 56.0 --
11/08/2019 11:00 651.65 0.00 28.3 61.0 --
11/08/2019 10:00 651.68 0.00 26.8 59.0 --
11/08/2019 09:00 651.66 0.00 26.7 66.0 --
11/08/2019 08:00 651.68 0.00 25.9 75.0 --
11/08/2019 07:00 651.68 0.00 25.9 78.0 --
11/08/2019 06:00 651.68 0.00 26.3 76.0 --
11/08/2019 05:00 651.69 0.00 28.2 70.0 --
11/08/2019 04:00 651.69 0.00 29.5 74.0 --
11/08/2019 03:00 651.69 0.00 30.6 69.0 --
11/08/2019 02:00 651.69 0.00 32.5 85.0 --
11/08/2019 01:00 651.70 0.00 33.1 88.0 --
11/08/2019 00:00 651.70 0.00 33.4 88.0 --
11/07/2019 23:00 651.72 0.02 35.0 100.0 --
11/07/2019 22:00 651.72 0.02 35.9 100.0 --
11/07/2019 21:00 651.71 0.03 36.6 100.0 --
11/07/2019 20:00 651.71 0.05 39.8 99.0 --
11/07/2019 19:00 651.71 0.05 40.8 100.0 --
11/07/2019 18:00 651.72 0.04 41.3 100.0 --
11/07/2019 17:00 651.72 0.02 41.3 96.0 --
11/07/2019 16:00 651.72 0.01 42.5 91.0 --
11/07/2019 15:00 651.72 0.00 43.8 80.0 --
11/07/2019 14:00 651.73 0.00 46.1 65.0 --
11/07/2019 13:00 651.73 0.00 46.4 64.0 --
11/07/2019 12:00 651.75 0.00 46.3 60.0 --
11/07/2019 11:00 651.76 0.00 45.9 53.0 --
11/07/2019 10:00 651.77 0.00 41.9 66.0 --
11/07/2019 09:00 651.75 0.00 35.8 80.0 --
11/07/2019 08:00 651.77 0.00 32.2 80.0 --
11/07/2019 07:00 651.78 0.00 32.5 80.0 --
11/07/2019 06:00 651.78 0.00 32.4 80.0 --
11/07/2019 05:00 651.80 0.00 34.1 73.0 --
11/07/2019 04:00 651.80 0.00 33.3 78.0 --
11/07/2019 03:00 651.80 0.00 31.9 79.0 --
11/07/2019 02:00 651.82 0.00 33.1 79.0 --
11/07/2019 01:00 651.82 0.00 31.7 74.0 --
11/07/2019 00:00 651.83 0.00 31.6 79.0 --
11/06/2019 23:00 651.83 0.00 31.5 76.0 --
11/06/2019 22:00 651.85 0.00 32.7 74.0 --
11/06/2019 21:00 651.86 0.00 35.7 69.0 --
11/06/2019 20:00 651.86 0.00 34.1 70.0 --
11/06/2019 19:00 651.89 0.00 36.8 61.0 --
11/06/2019 18:00 651.88 0.00 41.0 54.0 --
11/06/2019 17:00 651.90 0.00 46.5 32.0 --
11/06/2019 16:00 651.91 0.00 46.5 32.0 --
11/06/2019 15:00 651.92 0.00 46.3 35.0 --
11/06/2019 14:00 651.95 0.00 46.0 38.0 --
11/06/2019 13:00 651.94 0.00 45.3 42.0 --
11/06/2019 12:00 651.95 0.00 44.8 43.0 --
11/06/2019 11:00 652.00 0.00 43.4 47.0 --
11/06/2019 10:00 652.00 0.00 42.0 53.0 --
11/06/2019 09:00 652.01 0.00 40.1 61.0 --
11/06/2019 08:00 652.03 0.00 38.3 70.0 --
11/06/2019 07:00 652.05 0.00 38.1 66.0 --
11/06/2019 06:00 652.07 0.00 38.5 66.0 --
11/06/2019 05:00 652.08 0.00 38.0 68.0 --
11/06/2019 04:00 652.08 0.00 41.1 60.0 --
11/06/2019 03:00 652.12 0.00 42.6 52.0 --
11/06/2019 02:00 652.12 0.00 44.2 62.0 --
11/06/2019 01:00 652.16 0.00 47.1 57.0 --
11/06/2019 00:00 652.17 0.00 48.8 66.0 --
11/05/2019 23:00 652.18 0.00 49.3 69.0 --
11/05/2019 22:00 652.22 0.01 49.9 73.0 --
11/05/2019 21:00 652.23 0.00 44.7 100.0 --
11/05/2019 20:00 652.24 0.00 45.2 100.0 --
11/05/2019 19:00 652.27 0.00 46.9 100.0 --
11/05/2019 18:00 652.29 0.00 49.5 92.0 --
11/05/2019 17:00 652.32 0.00 51.2 85.0 --
11/05/2019 16:00 652.34 0.00 51.7 80.0 --
11/05/2019 15:00 652.36 0.00 51.0 80.0 --
11/05/2019 14:00 652.39 0.00 50.4 87.0 --
11/05/2019 13:00 652.41 0.00 48.8 88.0 --
11/05/2019 12:00 652.44 0.00 50.5 75.0 --
11/05/2019 11:00 652.43 0.00 48.2 76.0 --
11/05/2019 10:00 652.44 0.00 46.0 79.0 --
11/05/2019 09:00 652.44 0.00 44.7 87.0 --
11/05/2019 08:00 652.44 0.00 44.7 85.0 --
11/05/2019 07:00 652.46 0.00 47.4 76.0 --
11/05/2019 06:00 652.46 0.00 48.7 73.0 --
11/05/2019 05:00 652.46 0.00 47.8 73.0 --
11/05/2019 04:00 652.47 0.00 46.9 71.0 --
11/05/2019 03:00 652.48 0.00 46.5 70.0 --
11/05/2019 02:00 652.49 0.00 46.0 68.0 --
11/05/2019 01:00 652.48 0.00 46.0 67.0 --
11/05/2019 00:00 652.49 0.00 44.9 64.0 --
11/04/2019 23:00 652.49 0.00 42.0 68.0 --
11/04/2019 22:00 652.48 0.00 39.0 76.0 --
11/04/2019 21:00 652.50 0.00 39.6 73.0 --
11/04/2019 20:00 652.50 0.00 41.8 69.0 --
11/04/2019 19:00 652.52 0.00 44.2 66.0 --
11/04/2019 18:00 652.51 0.00 45.3 60.0 --
11/04/2019 17:00 652.53 0.00 48.7 43.0 --
11/04/2019 16:00 652.53 0.00 49.0 44.0 --
11/04/2019 15:00 652.53 0.00 48.2 44.0 --
11/04/2019 14:00 652.54 0.00 47.7 43.0 --
11/04/2019 13:00 652.55 0.00 44.9 47.0 --
11/04/2019 12:00 652.54 0.00 43.0 49.0 --
11/04/2019 11:00 652.54 0.00 41.7 53.0 --
11/04/2019 10:00 652.55 0.00 39.1 62.0 --
11/04/2019 09:00 652.55 0.00 34.6 77.0 --
11/04/2019 08:00 652.56 0.00 32.4 88.0 --
11/04/2019 07:00 652.56 0.00 29.7 95.0 --
11/04/2019 06:00 652.57 0.00 32.3 85.0 --
11/04/2019 05:00 652.58 0.00 31.8 91.0 --
11/04/2019 04:00 652.57 0.00 32.2 84.0 --
11/04/2019 03:00 652.59 0.00 32.4 80.0 --
11/04/2019 02:00 652.59 0.00 32.0 82.0 --
11/04/2019 01:00 652.59 0.00 32.2 82.0 --
11/04/2019 00:00 652.60 0.00 33.0 79.0 --
11/03/2019 23:00 652.60 0.00 33.6 78.0 --
11/03/2019 22:00 652.60 0.00 37.8 70.0 --
11/03/2019 21:00 652.62 0.00 42.0 48.0 --
11/03/2019 20:00 652.62 0.00 43.1 48.0 --
11/03/2019 19:00 652.63 0.00 40.6 66.0 --
11/03/2019 18:00 652.62 0.00 43.1 59.0 --
11/03/2019 17:00 652.64 0.00 47.2 41.0 --
11/03/2019 16:00 652.65 0.00 46.7 39.0 --
11/03/2019 15:00 652.64 0.00 46.8 42.0 --
11/03/2019 14:00 652.65 0.00 46.6 48.0 --
11/03/2019 13:00 652.66 0.00 46.5 52.0 --
11/03/2019 12:00 652.67 0.00 45.0 53.0 --
11/03/2019 11:00 652.67 0.00 43.6 62.0 --
11/03/2019 10:00 652.68 0.00 40.4 69.0 --
11/03/2019 09:00 652.68 0.00 36.9 78.0 --
11/03/2019 08:00 652.68 0.00 30.6 100.0 --
11/03/2019 07:00 652.69 0.00 30.0 100.0 --
11/03/2019 06:00 652.70 0.00 29.9 100.0 --
11/03/2019 05:00 652.71 0.00 30.1 100.0 --
11/03/2019 04:00 652.71 0.00 30.2 99.0 --
11/03/2019 03:00 652.71 0.00 30.7 98.0 --
11/03/2019 02:00 652.71 0.00 32.1 94.0 --
11/03/2019 01:00 652.71 0.00 33.7 87.0 --
11/03/2019 00:00 652.73 0.00 34.0 86.0 --
11/02/2019 23:00 652.74 0.00 32.9 87.0 --
11/02/2019 22:00 652.74 0.00 33.0 83.0 --
11/02/2019 21:00 652.75 0.00 34.4 80.0 --
11/02/2019 20:00 652.74 0.00 36.6 71.0 --
11/02/2019 19:00 652.76 0.00 39.1 63.0 --
11/02/2019 18:00 652.76 0.00 46.7 37.0 --
11/02/2019 17:00 652.76 0.00 47.4 37.0 --
11/02/2019 16:00 652.77 0.00 47.3 38.0 --
11/02/2019 15:00 652.78 0.00 45.3 37.0 --
11/02/2019 14:00 652.78 0.00 43.7 40.0 --
11/02/2019 13:00 652.78 0.00 42.6 49.0 --
11/02/2019 12:00 652.79 0.00 39.4 52.0 --
11/02/2019 11:00 652.79 0.00 38.1 60.0 --
11/02/2019 10:00 652.79 0.00 33.6 79.0 --
11/02/2019 09:00 652.81 0.00 29.8 95.0 --
11/02/2019 08:00 652.80 0.00 29.8 94.0 --
11/02/2019 07:00 652.81 0.00 30.2 94.0 --
11/02/2019 06:00 652.80 0.00 30.2 92.0 --
11/02/2019 05:00 652.82 0.00 31.6 88.0 --
11/02/2019 04:00 652.81 0.00 30.9 83.0 --
11/02/2019 03:00 652.81 0.00 32.4 80.0 --
11/02/2019 02:00 652.81 0.00 34.7 67.0 --
11/02/2019 01:00 652.81 0.00 36.9 58.0 --
11/02/2019 00:00 652.81 0.00 39.4 54.0 --
11/01/2019 23:00 652.81 0.00 40.2 55.0 --
11/01/2019 22:00 652.80 0.00 41.0 54.0 --
11/01/2019 21:00 652.84 0.00 41.9 53.0 --
11/01/2019 20:00 652.85 0.00 43.4 54.0 --
11/01/2019 19:00 652.81 0.00 44.2 47.0 --
11/01/2019 18:00 652.82 0.03 46.1 42.0 --
11/01/2019 17:00 652.83 0.00 48.1 43.0 --
11/01/2019 16:00 652.86 0.03 48.1 44.0 --
11/01/2019 15:00 652.83 0.15 48.0 47.0 --
11/01/2019 14:00 652.82 0.12 47.7 47.0 --
11/01/2019 13:00 652.81 0.16 48.5 44.0 --
11/01/2019 12:00 652.88 0.04 48.3 43.0 --
11/01/2019 11:00 652.89 0.30 47.6 46.0 --
11/01/2019 10:00 652.85 0.01 46.6 50.0 --
11/01/2019 09:00 652.81 0.08 46.8 52.0 --
11/01/2019 08:00 652.90 0.06 48.9 58.0 --
11/01/2019 07:00 652.88 0.01 51.9 88.0 --
11/01/2019 06:00 652.84 0.01 54.5 85.0 --
11/01/2019 05:00 652.89 0.14 56.9 100.0 --
11/01/2019 04:00 652.85 0.09 67.5 100.0 --
11/01/2019 03:00 652.86 0.01 69.1 91.0 --
11/01/2019 02:00 652.84 0.00 69.4 93.0 --
11/01/2019 01:00 652.82 0.00 68.5 98.0 --
11/01/2019 00:00 652.84 0.01 68.4 98.0 --
10/31/2019 23:00 652.84 0.00 68.9 95.0 --
10/31/2019 22:00 652.86 0.00 68.3 97.0 --
10/31/2019 21:00 652.87 0.00 68.8 91.0 --
10/31/2019 20:00 652.88 0.00 69.1 89.0 --
10/31/2019 19:00 652.86 0.00 67.9 98.0 --
10/31/2019 18:00 652.88 0.02 66.8 100.0 --
10/31/2019 17:00 652.89 0.00 67.1 100.0 --
10/31/2019 16:00 652.89 0.02 65.6 100.0 --
10/31/2019 15:00 652.92 0.02 65.1 100.0 --
10/31/2019 14:00 652.92 0.00 64.0 100.0 --
10/31/2019 13:00 652.94 0.00 63.2 100.0 --
10/31/2019 12:00 652.94 0.01 61.6 100.0 --
10/31/2019 11:00 652.96 0.00 60.5 100.0 --
10/31/2019 10:00 652.97 0.01 60.0 100.0 --
10/31/2019 09:00 652.98 0.02 58.9 100.0 --
10/31/2019 08:00 653.00 0.02 56.8 100.0 --
10/31/2019 07:00 653.02 0.00 54.8 100.0 --
10/31/2019 06:00 653.03 0.01 55.1 100.0 --
10/31/2019 05:00 653.06 0.00 55.1 100.0 --
10/31/2019 04:00 653.08 0.01 55.3 100.0 --
10/31/2019 03:00 653.10 0.01 55.0 100.0 --
10/31/2019 02:00 653.11 0.00 55.5 100.0 --
10/31/2019 01:00 653.14 0.00 55.4 100.0 --
10/31/2019 00:00 653.17 0.01 56.0 100.0 --
10/30/2019 23:00 653.19 0.00 56.4 100.0 --
10/30/2019 22:00 653.21 0.00 56.5 100.0 --
10/30/2019 21:00 653.24 0.00 56.3 100.0 --
10/30/2019 20:00 653.27 0.00 56.5 100.0 --
10/30/2019 19:00 653.30 0.00 57.7 98.0 --
10/30/2019 18:00 653.33 0.00 59.3 88.0 --
10/30/2019 17:00 653.36 0.00 59.3 87.0 --
10/30/2019 16:00 653.40 0.00 59.4 86.0 --
10/30/2019 15:00 653.43 0.00 59.2 86.0 --
10/30/2019 14:00 653.47 0.00 58.3 94.0 --
10/30/2019 13:00 653.51 0.00 56.9 100.0 --
10/30/2019 12:00 653.53 0.00 53.8 100.0 --
10/30/2019 11:00 653.58 0.00 51.0 100.0 --
10/30/2019 10:00 653.59 0.00 50.0 100.0 --
10/30/2019 09:00 653.60 0.00 48.6 100.0 --
10/30/2019 08:00 652.96 0.00 49.4 100.0 --
10/30/2019 07:00 653.60 0.00 49.2 100.0 --
10/30/2019 06:00 653.60 0.00 48.9 100.0 --
10/30/2019 05:00 653.62 0.00 48.9 100.0 --
10/30/2019 04:00 653.62 0.00 49.0 100.0 --
10/30/2019 03:00 653.62 0.00 49.3 100.0 --
10/30/2019 02:00 653.62 0.00 49.1 100.0 --
10/30/2019 01:00 653.64 0.00 48.6 100.0 --
10/30/2019 00:00 653.64 0.00 48.7 100.0 --
10/29/2019 23:00 653.64 0.00 49.5 100.0 --
10/29/2019 22:00 653.65 0.00 49.9 100.0 --
10/29/2019 21:00 653.65 0.00 50.4 100.0 --
10/29/2019 20:00 653.67 0.00 50.0 100.0 --
10/29/2019 19:00 653.67 0.00 50.0 100.0 --
10/29/2019 18:00 653.67 0.00 50.5 100.0 --
10/29/2019 17:00 653.68 0.00 51.2 92.0 --
10/29/2019 16:00 653.68 0.00 51.4 91.0 --
10/29/2019 15:00 653.68 0.00 50.7 95.0 --
10/29/2019 14:00 653.69 0.00 49.6 99.0 --
10/29/2019 13:00 653.71 0.00 50.1 94.0 --
10/29/2019 12:00 653.70 0.00 49.6 100.0 --
10/29/2019 11:00 653.71 0.00 48.1 100.0 --
10/29/2019 10:00 653.71 0.01 47.4 100.0 --
10/29/2019 09:00 653.71 0.00 46.8 100.0 --
10/29/2019 08:00 653.73 0.00 46.6 100.0 --
10/29/2019 07:00 653.72 0.00 46.6 100.0 --
10/29/2019 06:00 653.73 0.00 46.6 100.0 --
10/29/2019 05:00 653.73 0.00 46.6 100.0 --
10/29/2019 04:00 653.74 0.00 46.6 100.0 --
10/29/2019 03:00 653.74 0.00 46.7 100.0 --
10/29/2019 02:00 653.73 0.00 46.4 100.0 --
10/29/2019 01:00 653.74 0.00 46.7 100.0 --
10/29/2019 00:00 653.74 0.00 46.9 100.0 --
10/28/2019 23:00 653.74 0.00 47.2 100.0 --
10/28/2019 22:00 653.74 0.00 47.9 100.0 --
10/28/2019 21:00 653.74 0.00 48.4 100.0 --
10/28/2019 20:00 653.74 0.00 48.4 100.0 --
10/28/2019 19:00 653.73 0.00 49.3 95.0 --
10/28/2019 18:00 653.74 0.00 49.7 95.0 --
10/28/2019 17:00 653.74 0.00 49.8 94.0 --
10/28/2019 16:00 653.73 0.00 48.9 94.0 --
10/28/2019 15:00 653.73 0.00 48.3 100.0 --
10/28/2019 14:00 653.72 0.00 47.7 100.0 --
10/28/2019 13:00 653.72 0.00 47.2 100.0 --
10/28/2019 12:00 653.71 0.00 47.1 100.0 --
10/28/2019 11:00 653.70 0.00 46.9 100.0 --
10/28/2019 10:00 653.70 0.00 46.1 100.0 --
10/28/2019 09:00 653.69 0.00 45.3 100.0 --
10/28/2019 08:00 653.68 0.00 45.2 100.0 --
10/28/2019 07:00 653.68 0.01 45.4 100.0 --
10/28/2019 06:00 653.67 0.00 45.1 100.0 --
10/28/2019 05:00 653.66 0.00 44.9 100.0 --
10/28/2019 04:00 653.64 0.00 44.8 100.0 --
10/28/2019 03:00 653.63 0.00 44.5 100.0 --
10/28/2019 02:00 653.61 0.00 44.4 100.0 --
10/28/2019 01:00 653.59 0.00 44.9 100.0 --
10/28/2019 00:00 653.58 0.00 44.9 100.0 --
10/27/2019 23:00 653.58 0.00 44.4 100.0 --
10/27/2019 22:00 653.57 0.03 43.9 100.0 --
10/27/2019 21:00 653.55 0.05 44.1 100.0 --
10/27/2019 20:00 653.54 0.03 44.0 100.0 --
10/27/2019 19:00 653.53 0.06 43.5 100.0 --
10/27/2019 18:00 653.52 0.08 43.2 100.0 --
10/27/2019 17:00 653.50 0.18 43.2 100.0 --
10/27/2019 16:00 653.47 0.15 43.1 100.0 --
10/27/2019 15:00 653.47 0.18 43.2 100.0 --
10/27/2019 14:00 653.47 0.16 44.5 100.0 --
10/27/2019 13:00 653.44 0.14 43.2 100.0 --
10/27/2019 12:00 653.44 0.08 41.6 100.0 --
10/27/2019 11:00 653.44 0.01 40.1 100.0 --
10/27/2019 10:00 653.43 0.00 39.4 100.0 --
10/27/2019 09:00 653.44 0.00 38.6 100.0 --
10/27/2019 08:00 653.45 0.00 38.5 100.0 --
10/27/2019 07:00 653.45 0.00 38.5 100.0 --
10/27/2019 06:00 653.45 0.00 38.2 100.0 --
10/27/2019 05:00 653.45 0.00 38.1 100.0 --
10/27/2019 04:00 653.46 0.00 38.0 100.0 --
10/27/2019 03:00 653.46 0.00 37.8 100.0 --
10/27/2019 02:00 653.45 0.00 37.9 100.0 --
10/27/2019 01:00 653.47 0.00 37.9 100.0 --
10/27/2019 00:00 653.47 0.00 38.3 98.0 --
10/26/2019 23:00 653.47 0.00 38.4 95.0 --
10/26/2019 22:00 653.48 0.00 40.2 91.0 --
10/26/2019 21:00 653.48 0.00 42.5 85.0 --
10/26/2019 20:00 653.48 0.00 43.1 81.0 --
10/26/2019 19:00 653.50 0.00 45.9 73.0 --
10/26/2019 18:00 653.51 0.00 54.2 51.0 --
10/26/2019 17:00 653.51 0.00 53.6 47.0 --
10/26/2019 16:00 653.51 0.00 52.9 48.0 --
10/26/2019 15:00 653.51 0.00 52.3 49.0 --
10/26/2019 14:00 653.51 0.00 51.7 51.0 --
10/26/2019 13:00 653.52 0.00 51.4 57.0 --
10/26/2019 12:00 653.53 0.00 49.3 68.0 --
10/26/2019 11:00 653.54 0.00 47.1 87.0 --
10/26/2019 10:00 653.54 0.00 44.4 100.0 --
10/26/2019 09:00 653.54 0.00 44.2 100.0 --
10/26/2019 08:00 653.55 0.00 42.4 100.0 --
10/26/2019 07:00 653.55 0.00 44.9 100.0 --
10/26/2019 06:00 653.56 0.00 46.0 100.0 --
10/26/2019 05:00 653.56 0.00 45.7 100.0 --
10/26/2019 04:00 653.55 0.00 45.4 100.0 --
10/26/2019 03:00 653.56 0.01 45.8 100.0 --
10/26/2019 02:00 653.57 0.02 45.8 100.0 --
10/26/2019 01:00 653.57 0.01 46.5 100.0 --
10/26/2019 00:00 653.58 0.01 46.7 100.0 --
10/25/2019 23:00 653.57 0.00 47.2 98.0 --
10/25/2019 22:00 653.58 0.00 47.7 89.0 --
10/25/2019 21:00 653.59 0.00 48.2 86.0 --
10/25/2019 20:00 653.59 0.00 48.9 85.0 --
10/25/2019 19:00 653.60 0.00 50.2 81.0 --
10/25/2019 18:00 653.60 0.00 52.2 73.0 --
10/25/2019 17:00 653.60 0.00 53.4 64.0 --
10/25/2019 16:00 653.61 0.00 54.4 62.0 --
10/25/2019 15:00 653.61 0.00 54.1 64.0 --
10/25/2019 14:00 653.62 0.00 53.2 63.0 --
10/25/2019 13:00 653.63 0.00 52.3 70.0 --
10/25/2019 12:00 653.64 0.00 49.7 81.0 --
10/25/2019 11:00 653.63 0.00 47.7 88.0 --
10/25/2019 10:00 653.64 0.00 46.3 92.0 --
10/25/2019 09:00 653.64 0.00 45.5 89.0 --
10/25/2019 08:00 653.65 0.00 45.2 90.0 --
10/25/2019 07:00 653.64 0.00 45.2 87.0 --
10/25/2019 06:00 653.65 0.00 45.1 90.0 --
10/25/2019 05:00 653.66 0.00 44.8 90.0 --
10/25/2019 04:00 653.66 0.00 45.2 87.0 --
10/25/2019 03:00 653.66 0.00 45.1 87.0 --
10/25/2019 02:00 653.67 0.00 45.3 86.0 --
10/25/2019 01:00 653.67 0.00 46.1 87.0 --
10/25/2019 00:00 653.68 0.00 44.9 91.0 --
10/24/2019 23:00 653.69 0.00 44.5 85.0 --
10/24/2019 22:00 653.69 0.00 46.3 80.0 --
10/24/2019 21:00 653.70 0.00 48.3 76.0 --
10/24/2019 20:00 653.70 0.00 51.7 71.0 --
10/24/2019 19:00 653.71 0.00 60.2 46.0 --
10/24/2019 18:00 653.71 0.00 63.7 37.0 --
10/24/2019 17:00 653.73 0.00 63.8 35.0 --
10/24/2019 16:00 653.72 0.00 63.2 35.0 --
10/24/2019 15:00 653.72 0.00 61.7 38.0 --
10/24/2019 14:00 653.74 -- 60.8 37.0 --
10/24/2019 13:00 653.76 -- 60.5 39.2 --
10/24/2019 12:00 653.77 -- 60.2 41.3 --
10/24/2019 11:00 653.79 -- 59.8 43.5 --
10/24/2019 10:00 653.80 -- 59.5 45.7 --
10/24/2019 09:00 653.82 -- 59.2 47.9 --
10/24/2019 08:00 653.83 -- 58.9 50.0 --
10/24/2019 07:00 653.85 -- 58.5 52.2 --
10/24/2019 06:00 653.86 -- 58.2 54.4 --
10/24/2019 05:00 653.88 -- 57.9 56.6 --
10/24/2019 04:00 653.89 -- 57.6 58.7 --
10/24/2019 03:00 653.91 -- 57.2 60.9 --
10/24/2019 02:00 653.92 -- 56.9 63.1 --
10/24/2019 01:00 653.94 -- 56.6 65.2 --
10/24/2019 00:00 653.95 -- 56.3 67.4 --
10/23/2019 23:00 653.97 -- 55.9 69.6 --
10/23/2019 22:00 653.98 -- 55.6 71.8 --
10/23/2019 21:00 654.00 -- 55.3 73.9 --
10/23/2019 20:00 654.01 -- 55.0 76.1 --
10/23/2019 19:00 654.03 -- 54.6 78.3 --
10/23/2019 18:00 654.04 -- 54.3 80.4 --
10/23/2019 17:00 654.06 -- 54.0 82.6 --
10/23/2019 16:00 654.07 -- 53.7 84.8 --
10/23/2019 15:00 654.09 -- 53.3 87.0 --
10/23/2019 14:00 654.10 -- 53.0 89.1 --
10/23/2019 13:00 654.12 -- 52.7 91.3 --
10/23/2019 12:00 654.13 -- 52.4 93.5 --
10/23/2019 11:00 654.15 -- 52.0 95.7 --
10/23/2019 10:00 654.16 0.00 51.7 97.8 --
10/23/2019 09:00 654.18 0.02 51.4 100.0 --
10/23/2019 08:00 654.17 0.08 51.3 100.0 --
10/23/2019 07:00 654.16 0.04 51.2 100.0 --
10/23/2019 06:00 654.16 0.05 51.1 100.0 --
10/23/2019 05:00 654.15 0.00 51.1 100.0 --
10/23/2019 04:00 654.15 0.12 51.1 100.0 --
10/23/2019 03:00 654.16 0.12 51.1 100.0 --
10/23/2019 02:00 654.15 0.09 50.7 100.0 --
10/23/2019 01:00 654.15 0.06 50.7 100.0 --
10/23/2019 00:00 654.14 0.03 50.5 100.0 --
10/22/2019 23:00 654.14 0.02 50.2 100.0 --
10/22/2019 22:00 654.13 0.00 50.2 100.0 --
10/22/2019 21:00 654.13 0.00 50.5 97.0 --
10/22/2019 20:00 654.14 0.00 51.6 90.0 --
10/22/2019 19:00 654.14 0.00 53.6 78.0 --
10/22/2019 18:00 654.14 0.00 53.6 78.0 --
10/22/2019 17:00 654.15 0.00 55.2 71.0 --
10/22/2019 16:00 654.15 0.00 55.2 72.0 --
10/22/2019 15:00 654.16 0.00 55.3 67.0 --
10/22/2019 14:00 654.16 0.00 55.8 73.0 --
10/22/2019 13:00 654.16 0.00 55.8 73.0 --
10/22/2019 12:00 654.16 0.00 51.4 90.0 --
10/22/2019 11:00 654.17 0.00 43.9 100.0 --
10/22/2019 10:00 654.17 0.00 42.6 100.0 --
10/22/2019 09:00 654.17 0.00 42.2 100.0 --
10/22/2019 08:00 654.19 0.00 41.6 100.0 --
10/22/2019 07:00 654.19 0.00 41.2 100.0 --
10/22/2019 06:00 654.20 0.00 41.0 100.0 --
10/22/2019 05:00 654.19 0.00 41.3 100.0 --
10/22/2019 04:00 654.21 0.00 41.0 100.0 --
10/22/2019 03:00 654.21 0.00 42.1 100.0 --
10/22/2019 02:00 654.22 0.00 42.2 100.0 --
10/22/2019 01:00 654.23 0.00 43.4 100.0 --
10/22/2019 00:00 654.23 0.00 44.9 100.0 --
10/21/2019 23:00 654.23 0.00 45.9 100.0 --
10/21/2019 22:00 654.23 0.00 48.3 100.0 --
10/21/2019 21:00 654.24 0.00 50.7 99.0 --
10/21/2019 20:00 654.24 0.00 51.7 93.0 --
10/21/2019 19:00 654.24 0.00 58.6 73.0 --
10/21/2019 18:00 654.26 0.00 62.6 61.0 --
10/21/2019 17:00 654.26 0.00 62.6 61.0 --
10/21/2019 16:00 654.26 0.00 59.1 66.0 --
10/21/2019 15:00 654.26 0.00 54.3 81.0 --
10/21/2019 14:00 654.27 0.00 52.3 93.0 --
10/21/2019 13:00 654.27 0.00 49.0 100.0 --
10/21/2019 12:00 654.28 0.00 44.6 100.0 --
10/21/2019 11:00 654.27 0.00 42.2 100.0 --
10/21/2019 10:00 654.28 0.00 41.5 100.0 --
10/21/2019 09:00 654.29 0.00 42.2 100.0 --
10/21/2019 08:00 654.30 0.00 43.5 100.0 --
10/21/2019 07:00 654.30 0.00 43.8 100.0 --
10/21/2019 06:00 654.30 0.00 43.8 100.0 --
10/21/2019 05:00 654.32 0.00 44.9 100.0 --
10/21/2019 04:00 654.32 0.00 44.9 100.0 --
10/21/2019 03:00 654.31 0.00 46.0 100.0 --
10/21/2019 02:00 654.32 0.00 46.8 100.0 --
10/21/2019 01:00 654.33 0.01 47.6 100.0 --
10/21/2019 00:00 654.33 0.00 47.9 100.0 --
10/20/2019 23:00 654.33 0.02 47.9 100.0 --
10/20/2019 22:00 654.34 0.05 48.2 100.0 --
10/20/2019 21:00 654.34 0.01 48.2 100.0 --
10/20/2019 20:00 654.34 0.00 49.1 90.0 --
10/20/2019 19:00 654.37 0.00 52.9 76.0 --
10/20/2019 18:00 654.37 0.00 54.2 71.0 --
10/20/2019 17:00 654.38 0.00 54.8 59.0 --
10/20/2019 16:00 654.38 0.00 54.8 59.0 --
10/20/2019 15:00 654.39 0.00 54.4 59.0 --
10/20/2019 14:00 654.40 0.00 50.2 70.0 --
10/20/2019 13:00 654.41 0.00 45.4 75.0 --
10/20/2019 12:00 654.42 0.00 41.4 86.0 --
10/20/2019 11:00 654.42 0.00 41.4 86.0 --
10/20/2019 10:00 654.42 0.00 37.7 100.0 --
10/20/2019 09:00 654.44 0.00 33.4 100.0 --
10/20/2019 08:00 654.44 0.00 33.4 100.0 --
10/20/2019 07:00 654.43 0.00 33.3 100.0 --
10/20/2019 06:00 654.44 0.00 33.7 100.0 --
10/20/2019 05:00 654.45 0.00 34.8 100.0 --
10/20/2019 04:00 654.47 0.00 36.3 100.0 --
10/20/2019 03:00 654.48 0.00 37.0 100.0 --
10/20/2019 02:00 654.49 0.00 37.5 100.0 --
10/20/2019 01:00 654.49 0.00 37.5 100.0 --
10/20/2019 00:00 654.49 0.00 38.4 98.0 --
10/19/2019 23:00 654.51 0.00 42.5 87.0 --
10/19/2019 22:00 654.52 0.00 43.1 80.0 --
10/19/2019 21:00 654.52 0.00 44.4 78.0 --
10/19/2019 20:00 654.52 0.00 44.4 78.0 --
10/19/2019 19:00 654.54 0.00 47.9 66.0 --
10/19/2019 18:00 654.55 0.00 55.9 39.0 --
10/19/2019 17:00 654.56 0.00 54.4 42.0 --
10/19/2019 16:00 654.57 0.00 52.6 46.0 --
10/19/2019 15:00 654.57 0.00 50.9 50.0 --
10/19/2019 14:00 654.58 0.00 49.1 51.0 --
10/19/2019 13:00 654.60 0.00 47.2 55.0 --
10/19/2019 12:00 654.60 0.00 47.2 55.0 --
10/19/2019 11:00 654.61 0.00 45.2 61.0 --
10/19/2019 10:00 654.62 0.00 37.0 93.0 --
10/19/2019 09:00 654.63 0.00 37.2 90.0 --
10/19/2019 08:00 654.64 0.00 39.6 82.0 --
10/19/2019 07:00 654.64 0.00 39.6 82.0 --
10/19/2019 06:00 654.64 0.00 41.4 71.0 --
10/19/2019 05:00 654.64 0.00 41.5 72.0 --
10/19/2019 04:00 654.66 0.00 42.9 71.0 --
10/19/2019 03:00 654.68 0.00 43.6 70.0 --
10/19/2019 02:00 654.68 0.00 43.6 70.0 --
10/19/2019 01:00 654.67 0.00 44.1 66.0 --
10/19/2019 00:00 654.68 0.00 45.4 64.0 --
10/18/2019 23:00 654.70 0.00 45.5 64.0 --
10/18/2019 22:00 654.72 0.00 46.6 64.0 --
10/18/2019 21:00 654.72 0.00 45.4 74.0 --
10/18/2019 20:00 654.73 0.00 47.9 66.0 --
10/18/2019 19:00 654.73 0.00 49.3 63.0 --
10/18/2019 18:00 654.74 0.00 50.5 63.0 --
10/18/2019 17:00 654.75 0.00 50.9 63.0 --
10/18/2019 16:00 654.75 0.00 50.9 63.0 --
10/18/2019 15:00 654.75 0.00 50.1 64.0 --
10/18/2019 14:00 654.73 0.00 50.7 59.0 --
10/18/2019 13:00 654.73 0.00 50.7 59.0 --
10/18/2019 12:00 654.76 0.00 49.4 63.0 --
10/18/2019 11:00 654.73 0.00 48.7 67.0 --
10/18/2019 10:00 654.75 0.00 48.4 70.0 --
10/18/2019 09:00 654.73 0.00 47.8 72.0 --
10/18/2019 08:00 654.73 0.00 47.7 70.0 --
10/18/2019 07:00 654.73 0.00 47.8 70.0 --
10/18/2019 06:00 654.74 0.00 47.7 69.0 --
10/18/2019 05:00 654.71 0.00 47.7 68.0 --
10/18/2019 04:00 654.71 0.00 47.5 71.0 --
10/18/2019 03:00 654.71 0.00 47.5 71.0 --
10/18/2019 02:00 654.69 0.00 46.8 68.0 --
10/18/2019 01:00 654.67 0.00 46.4 71.0 --
10/18/2019 00:00 654.65 0.00 46.2 73.0 --
10/17/2019 23:00 654.66 0.00 47.1 70.0 --
10/17/2019 22:00 654.66 0.00 47.1 70.0 --
10/17/2019 21:00 654.62 0.00 46.4 72.0 --
10/17/2019 20:00 654.61 0.00 45.3 79.0 --
10/17/2019 19:00 654.57 0.03 44.4 82.0 --
10/17/2019 18:00 654.55 0.00 44.3 88.0 --
10/17/2019 17:00 654.55 0.01 44.3 88.0 --
10/17/2019 16:00 654.49 0.03 44.8 88.0 --
10/17/2019 15:00 654.49 0.05 44.7 93.0 --
10/17/2019 14:00 654.47 0.19 44.1 92.0 --
10/17/2019 13:00 654.38 0.04 44.9 93.0 --
10/17/2019 12:00 654.34 0.02 46.0 98.0 --
10/17/2019 11:00 654.33 0.03 47.3 100.0 --
10/17/2019 10:00 654.30 0.01 52.2 100.0 --
10/17/2019 09:00 654.25 0.12 53.1 100.0 --
10/17/2019 08:00 654.21 0.15 53.0 100.0 --
10/17/2019 07:00 654.20 0.23 52.4 100.0 --
10/17/2019 06:00 654.14 0.22 51.7 100.0 --
10/17/2019 05:00 654.10 0.38 52.3 100.0 --
10/17/2019 04:00 654.06 0.22 52.4 100.0 --
10/17/2019 03:00 654.04 0.10 51.7 100.0 --
10/17/2019 02:00 654.02 0.11 50.5 100.0 --
10/17/2019 01:00 654.00 0.00 50.5 100.0 --
10/17/2019 00:00 654.00 0.17 50.5 100.0 --
10/16/2019 23:00 654.00 0.14 49.8 100.0 --
10/16/2019 22:00 653.98 0.01 49.3 100.0 --
10/16/2019 21:00 654.00 0.00 51.8 77.0 --
10/16/2019 20:00 653.98 0.00 52.4 71.0 --
10/16/2019 19:00 653.98 0.00 52.4 71.0 --
10/16/2019 18:00 653.97 0.00 53.5 66.0 --
10/16/2019 17:00 653.98 0.00 56.4 57.0 --
10/16/2019 16:00 654.00 0.00 57.5 60.0 --
10/16/2019 15:00 653.99 0.00 55.2 62.0 --
10/16/2019 14:00 653.99 0.00 55.2 62.0 --
10/16/2019 13:00 653.99 0.00 54.6 60.0 --
10/16/2019 12:00 653.99 0.00 43.7 80.0 --
10/16/2019 11:00 654.01 0.00 39.2 100.0 --
10/16/2019 10:00 654.01 0.00 34.7 100.0 --
10/16/2019 09:00 654.01 0.00 34.7 100.0 --
10/16/2019 08:00 654.02 0.00 34.5 100.0 --
10/16/2019 07:00 654.03 0.00 35.5 100.0 --
10/16/2019 06:00 654.04 0.00 35.6 100.0 --
10/16/2019 05:00 654.04 0.00 36.6 100.0 --
10/16/2019 04:00 654.04 0.00 36.6 100.0 --
10/16/2019 03:00 654.06 0.00 37.2 100.0 --
10/16/2019 02:00 654.08 0.00 38.7 92.0 --
10/16/2019 01:00 654.08 0.00 40.3 88.0 --
10/16/2019 00:00 654.08 0.00 42.0 84.0 --
10/15/2019 23:00 654.08 0.00 42.0 84.0 --
10/15/2019 22:00 654.10 0.00 43.7 80.0 --
10/15/2019 21:00 654.12 0.00 45.9 74.0 --
10/15/2019 20:00 654.13 0.00 50.1 59.0 --
10/15/2019 19:00 654.14 0.00 58.5 43.0 --
10/15/2019 18:00 654.14 0.00 58.5 43.0 --
10/15/2019 17:00 654.15 0.00 58.3 34.0 --
10/15/2019 16:00 654.17 0.00 55.2 36.0 --
10/15/2019 15:00 654.18 0.00 53.8 37.0 --
10/15/2019 14:00 654.19 0.00 52.8 42.0 --
10/15/2019 13:00 654.19 0.00 52.8 42.0 --
10/15/2019 12:00 654.20 0.00 50.9 53.0 --
10/15/2019 11:00 654.22 0.00 49.4 59.0 --
10/15/2019 10:00 654.23 0.00 46.1 69.0 --
10/15/2019 09:00 654.26 0.00 42.6 74.0 --
10/15/2019 08:00 654.26 0.00 42.6 74.0 --
10/15/2019 07:00 654.28 0.00 43.0 72.0 --
10/15/2019 06:00 654.29 0.00 45.3 70.0 --
10/15/2019 05:00 654.30 0.00 46.5 77.0 --
10/15/2019 04:00 654.32 0.00 48.7 76.0 --
10/15/2019 03:00 654.32 0.00 48.7 76.0 --
10/15/2019 02:00 654.35 0.00 53.5 66.0 --
10/15/2019 01:00 654.36 0.00 52.7 76.0 --
10/15/2019 00:00 654.38 0.00 49.5 100.0 --
10/14/2019 23:00 654.41 0.00 50.2 100.0 --
10/14/2019 22:00 654.42 0.00 53.2 89.0 --
10/14/2019 21:00 654.44 0.00 55.7 83.0 --
10/14/2019 20:00 654.46 0.00 58.3 72.0 --
10/14/2019 19:00 654.48 0.00 66.7 54.0 --
10/14/2019 18:00 654.50 0.00 67.5 43.0 --
10/14/2019 17:00 654.50 0.00 67.5 43.0 --
10/14/2019 16:00 654.51 0.00 67.5 50.0 --
10/14/2019 15:00 654.54 0.00 64.2 56.0 --
10/14/2019 14:00 654.56 0.00 62.4 56.0 --
10/14/2019 13:00 654.60 0.00 55.2 74.0 --
10/14/2019 12:00 654.60 0.00 54.0 76.0 --
10/14/2019 11:00 654.64 0.00 45.1 98.0 --
10/14/2019 10:00 654.65 0.00 42.7 100.0 --
10/14/2019 09:00 654.67 0.00 38.6 100.0 --
10/14/2019 08:00 654.67 0.00 38.8 100.0 --
10/14/2019 07:00 654.67 0.00 39.7 100.0 --
10/14/2019 06:00 654.69 0.00 40.2 100.0 --
10/14/2019 05:00 654.69 0.00 40.9 100.0 --
10/14/2019 04:00 654.68 0.00 42.6 100.0 --
10/14/2019 03:00 654.70 0.00 43.3 100.0 --
10/14/2019 02:00 654.70 0.00 45.4 100.0 --
10/14/2019 01:00 654.71 0.00 47.3 93.0 --
10/14/2019 00:00 654.71 0.00 49.3 91.0 --
10/13/2019 23:00 654.72 0.00 50.1 89.0 --
10/13/2019 22:00 654.72 0.00 50.5 84.0 --
10/13/2019 21:00 654.73 0.00 53.6 82.0 --
10/13/2019 20:00 654.74 0.00 54.8 78.0 --
10/13/2019 19:00 654.74 0.00 54.8 78.0 --
10/13/2019 18:00 654.75 0.00 59.9 66.0 --
10/13/2019 17:00 654.75 0.00 62.5 44.0 --
10/13/2019 16:00 654.76 0.00 61.6 55.0 --
10/13/2019 15:00 654.76 0.00 60.1 59.0 --
10/13/2019 14:00 654.76 0.00 60.1 59.0 --
10/13/2019 13:00 654.78 0.00 58.7 64.0 --
10/13/2019 12:00 654.80 0.00 53.8 78.0 --
10/13/2019 11:00 654.81 0.00 51.9 85.0 --
10/13/2019 10:00 654.81 0.00 50.7 100.0 --
10/13/2019 09:00 654.81 0.00 50.7 100.0 --
10/13/2019 08:00 654.82 0.00 49.9 100.0 --
10/13/2019 07:00 654.84 0.00 48.1 100.0 --
10/13/2019 06:00 654.85 0.00 50.1 100.0 --
10/13/2019 05:00 654.85 0.00 49.8 100.0 --
10/13/2019 04:00 654.86 0.00 49.2 100.0 --
10/13/2019 03:00 654.87 0.00 48.4 100.0 --
10/13/2019 02:00 654.88 0.00 47.9 100.0 --
10/13/2019 01:00 654.89 0.00 47.9 100.0 --
10/13/2019 00:00 654.90 0.00 48.4 100.0 --
10/12/2019 23:00 654.90 0.00 48.4 100.0 --
10/12/2019 22:00 654.91 0.00 49.5 100.0 --
10/12/2019 21:00 654.92 0.00 51.2 100.0 --
10/12/2019 20:00 654.93 0.00 56.5 79.0 --
10/12/2019 19:00 654.94 0.01 56.4 81.0 --
10/12/2019 18:00 654.96 0.00 55.8 80.0 --
10/12/2019 17:00 655.02 0.00 55.5 79.0 --
10/12/2019 16:00 655.08 0.00 55.1 84.0 --
10/12/2019 15:00 655.14 0.00 53.4 87.0 --
10/12/2019 14:00 655.20 0.00 53.3 90.0 --
10/12/2019 13:00 655.26 0.00 50.9 100.0 --
10/12/2019 12:00 655.32 0.00 50.2 100.0 --
10/12/2019 11:00 655.32 0.00 50.2 100.0 --
10/12/2019 10:00 655.39 0.00 49.5 100.0 --
10/12/2019 09:00 655.47 0.00 50.0 89.0 --
10/12/2019 08:00 655.47 0.00 50.2 86.0 --
10/12/2019 07:00 655.47 0.00 50.8 83.0 --
10/12/2019 06:00 655.47 0.00 50.5 85.0 --
10/12/2019 05:00 655.47 0.00 50.3 85.0 --
10/12/2019 04:00 655.47 0.00 50.5 84.0 --
10/12/2019 03:00 655.47 0.00 51.0 82.0 --
10/12/2019 02:00 655.47 0.00 51.0 82.0 --
10/12/2019 01:00 655.48 0.00 51.1 80.0 --
10/12/2019 00:00 655.47 0.00 51.0 74.0 --
10/11/2019 23:00 655.47 0.00 51.0 74.0 --
10/11/2019 22:00 655.47 0.00 51.5 72.0 --
10/11/2019 21:00 655.48 0.00 51.9 69.0 --
10/11/2019 20:00 655.47 0.00 53.6 63.0 --
10/11/2019 19:00 655.46 0.00 55.7 56.0 --
10/11/2019 18:00 655.46 0.00 55.7 56.0 --
10/11/2019 17:00 655.48 0.00 55.8 50.0 --
10/11/2019 16:00 655.47 0.00 58.6 45.0 --
10/11/2019 15:00 655.49 0.00 58.3 50.0 --
10/11/2019 14:00 655.49 0.00 55.8 56.0 --
10/11/2019 13:00 655.49 0.00 55.8 56.0 --
10/11/2019 12:00 655.49 0.00 54.1 59.0 --
10/11/2019 11:00 655.48 0.00 48.7 75.0 --
10/11/2019 10:00 655.49 0.00 45.2 83.0 --
10/11/2019 09:00 655.48 0.00 42.6 88.0 --
10/11/2019 08:00 655.48 0.00 42.6 88.0 --
10/11/2019 07:00 655.49 0.00 42.9 87.0 --
10/11/2019 06:00 655.48 0.00 42.5 89.0 --
10/11/2019 05:00 655.48 0.00 42.6 87.0 --
10/11/2019 04:00 655.48 0.00 44.2 80.0 --
10/11/2019 03:00 655.48 0.00 44.2 80.0 --
10/11/2019 02:00 655.48 0.00 44.7 79.0 --
10/11/2019 01:00 655.48 0.00 46.0 78.0 --
10/11/2019 00:00 655.48 0.00 46.9 75.0 --
10/10/2019 23:00 655.48 0.00 46.4 81.0 --
10/10/2019 22:00 655.48 0.00 46.4 81.0 --
10/10/2019 21:00 655.48 0.00 48.7 77.0 --
10/10/2019 20:00 655.48 0.00 51.4 71.0 --
10/10/2019 19:00 655.48 0.00 54.0 65.0 --
10/10/2019 18:00 655.48 0.00 55.3 57.0 --
10/10/2019 17:00 655.48 0.00 55.3 57.0 --
10/10/2019 16:00 655.49 0.00 55.8 53.0 --
10/10/2019 15:00 655.49 0.00 54.6 59.0 --
10/10/2019 14:00 655.48 0.00 53.6 63.0 --
10/10/2019 13:00 655.48 0.00 51.2 70.0 --
10/10/2019 12:00 655.48 0.00 48.4 80.0 --
10/10/2019 11:00 655.49 0.00 46.7 92.0 --